createdAt,value
2018-07-12T00:00:46.256Z,15.71
2018-07-12T00:01:46.183Z,15.67
2018-07-12T00:02:46.110Z,15.66
2018-07-12T00:03:46.038Z,15.63
2018-07-12T00:04:45.967Z,15.67
2018-07-12T00:05:45.893Z,15.67
2018-07-12T00:06:45.820Z,15.75
2018-07-12T00:07:45.748Z,15.68
2018-07-12T00:08:45.676Z,15.70
2018-07-12T00:09:45.606Z,15.78
2018-07-12T00:10:45.531Z,15.75
2018-07-12T00:11:45.459Z,15.71
2018-07-12T00:12:45.385Z,15.70
2018-07-12T00:13:45.315Z,15.76
2018-07-12T00:14:45.241Z,15.78
2018-07-12T00:15:45.169Z,15.75
2018-07-12T00:16:45.096Z,15.78
2018-07-12T00:17:45.026Z,15.71
2018-07-12T00:18:44.952Z,15.73
2018-07-12T00:19:44.879Z,15.70
2018-07-12T00:20:44.807Z,15.70
2018-07-12T00:21:44.735Z,15.71
2018-07-12T00:22:44.664Z,15.73
2018-07-12T00:23:44.590Z,15.75
2018-07-12T00:24:44.518Z,15.73
2018-07-12T00:25:44.447Z,15.71
2018-07-12T00:26:44.372Z,15.64
2018-07-12T00:27:44.300Z,15.63
2018-07-12T00:28:44.228Z,15.67
2018-07-12T00:29:44.155Z,15.75
2018-07-12T00:30:44.083Z,15.67
2018-07-12T00:31:44.011Z,15.73
2018-07-12T00:32:43.940Z,15.68
2018-07-12T00:33:43.910Z,15.63
2018-07-12T00:34:43.794Z,15.73
2018-07-12T00:35:43.722Z,15.68
2018-07-12T00:36:43.651Z,15.71
2018-07-12T00:37:43.579Z,15.64
2018-07-12T00:38:43.505Z,15.71
2018-07-12T00:39:43.434Z,15.75
2018-07-12T00:40:43.361Z,15.67
2018-07-12T00:41:43.289Z,15.64
2018-07-12T00:42:43.218Z,15.68
2018-07-12T00:43:43.145Z,15.66
2018-07-12T00:44:43.073Z,15.68
2018-07-12T00:45:42.999Z,15.70
2018-07-12T00:46:42.927Z,15.64
2018-07-12T00:47:42.853Z,15.75
2018-07-12T00:48:42.783Z,15.71
2018-07-12T00:49:42.711Z,15.67
2018-07-12T00:50:42.638Z,15.66
2018-07-12T00:51:42.567Z,15.67
2018-07-12T00:52:42.493Z,15.71
2018-07-12T00:53:42.421Z,15.68
2018-07-12T00:54:42.349Z,15.66
2018-07-12T00:55:42.276Z,15.66
2018-07-12T00:56:42.204Z,15.66
2018-07-12T00:57:42.133Z,15.73
2018-07-12T00:58:42.063Z,15.66
2018-07-12T00:59:41.987Z,15.64
2018-07-12T01:00:41.914Z,15.67
2018-07-12T01:01:41.843Z,15.66
2018-07-12T01:02:41.771Z,15.57
2018-07-12T01:03:41.698Z,15.59
2018-07-12T01:04:41.629Z,15.53
2018-07-12T01:05:41.554Z,15.57
2018-07-12T01:06:41.481Z,15.46
2018-07-12T01:07:41.409Z,15.41
2018-07-12T01:08:41.336Z,15.42
2018-07-12T01:09:41.264Z,15.45
2018-07-12T01:10:41.191Z,15.45
2018-07-12T01:11:41.121Z,15.28
2018-07-12T01:12:41.047Z,15.33
2018-07-12T01:13:40.975Z,15.39
2018-07-12T01:14:40.901Z,15.35
2018-07-12T01:15:40.828Z,15.35
2018-07-12T01:16:40.756Z,15.34
2018-07-12T01:17:40.683Z,15.35
2018-07-12T01:18:40.611Z,15.42
2018-07-12T01:19:40.539Z,15.34
2018-07-12T01:20:40.466Z,15.38
2018-07-12T01:21:40.394Z,15.27
2018-07-12T01:22:40.320Z,15.21
2018-07-12T01:23:40.248Z,15.26
2018-07-12T01:24:40.179Z,15.20
2018-07-12T01:25:40.103Z,15.20
2018-07-12T01:26:40.030Z,15.21
2018-07-12T01:27:39.957Z,15.18
2018-07-12T01:28:39.885Z,15.23
2018-07-12T01:29:39.815Z,15.21
2018-07-12T01:30:39.738Z,15.23
2018-07-12T01:31:39.667Z,15.24
2018-07-12T01:32:39.595Z,15.26
2018-07-12T01:33:39.523Z,15.26
2018-07-12T01:34:39.448Z,15.30
2018-07-12T01:35:39.376Z,15.28
2018-07-12T01:36:39.302Z,15.38
2018-07-12T01:37:39.231Z,15.33
2018-07-12T01:38:39.157Z,15.39
2018-07-12T01:39:39.085Z,15.38
2018-07-12T01:40:39.013Z,15.41
2018-07-12T01:41:38.941Z,15.45
2018-07-12T01:42:38.866Z,15.31
2018-07-12T01:43:38.794Z,15.31
2018-07-12T01:44:38.722Z,15.31
2018-07-12T01:45:38.650Z,15.38
2018-07-12T01:46:38.577Z,15.28
2018-07-12T01:47:38.505Z,15.35
2018-07-12T01:48:38.431Z,15.41
2018-07-12T01:49:38.359Z,15.51
2018-07-12T01:50:38.286Z,15.49
2018-07-12T01:51:38.213Z,15.55
2018-07-12T01:52:38.142Z,15.55
2018-07-12T01:53:38.070Z,15.59
2018-07-12T01:54:37.995Z,15.61
2018-07-12T01:55:37.924Z,15.57
2018-07-12T01:56:37.850Z,15.59
2018-07-12T01:57:37.779Z,15.59
2018-07-12T01:58:37.705Z,15.61
2018-07-12T01:59:37.637Z,15.57
2018-07-12T02:00:37.624Z,15.59
2018-07-12T02:01:37.489Z,15.67
2018-07-12T02:02:37.416Z,15.53
2018-07-12T02:03:37.345Z,15.57
2018-07-12T02:04:37.272Z,15.67
2018-07-12T02:05:37.201Z,15.60
2018-07-12T02:06:37.126Z,15.52
2018-07-12T02:07:37.078Z,15.66
2018-07-12T02:08:36.981Z,15.71
2018-07-12T02:09:36.909Z,15.64
2018-07-12T02:10:36.835Z,15.66
2018-07-12T02:11:36.765Z,15.60
2018-07-12T02:12:36.693Z,15.59
2018-07-12T02:13:36.619Z,15.57
2018-07-12T02:14:36.547Z,15.57
2018-07-12T02:15:36.474Z,15.67
2018-07-12T02:16:36.402Z,15.51
2018-07-12T02:17:36.331Z,15.61
2018-07-12T02:18:36.257Z,15.66
2018-07-12T02:19:36.186Z,15.61
2018-07-12T02:20:36.113Z,15.63
2018-07-12T02:21:36.041Z,15.66
2018-07-12T02:22:35.969Z,15.70
2018-07-12T02:23:35.896Z,15.68
2018-07-12T02:24:35.824Z,15.68
2018-07-12T02:25:35.754Z,15.68
2018-07-12T02:26:35.680Z,15.68
2018-07-12T02:27:35.626Z,15.76
2018-07-12T02:28:35.534Z,15.73
2018-07-12T02:29:35.460Z,15.67
2018-07-12T02:30:35.389Z,15.67
2018-07-12T02:31:35.317Z,15.67
2018-07-12T02:32:35.245Z,15.75
2018-07-12T02:33:35.173Z,15.73
2018-07-12T02:34:35.099Z,15.76
2018-07-12T02:35:35.031Z,15.75
2018-07-12T02:36:34.956Z,15.68
2018-07-12T02:37:34.883Z,15.79
2018-07-12T02:38:34.810Z,15.85
2018-07-12T02:39:34.741Z,15.78
2018-07-12T02:40:34.666Z,15.86
2018-07-12T02:41:34.594Z,15.89
2018-07-12T02:42:34.522Z,15.88
2018-07-12T02:43:34.449Z,15.86
2018-07-12T02:44:34.381Z,15.94
2018-07-12T02:45:34.306Z,15.81
2018-07-12T02:46:34.232Z,15.83
2018-07-12T02:47:34.161Z,15.85
2018-07-12T02:48:34.088Z,15.73
2018-07-12T02:49:34.017Z,15.83
2018-07-12T02:50:33.944Z,15.88
2018-07-12T02:51:33.876Z,15.81
2018-07-12T02:52:33.801Z,15.94
2018-07-12T02:53:33.727Z,15.94
2018-07-12T02:54:33.656Z,15.99
2018-07-12T02:55:33.583Z,15.89
2018-07-12T02:56:33.515Z,15.86
2018-07-12T02:57:33.439Z,15.86
2018-07-12T02:58:33.366Z,15.89
2018-07-12T02:59:33.296Z,15.89
2018-07-12T03:00:33.223Z,15.88
2018-07-12T03:01:33.150Z,15.86
2018-07-12T03:02:33.082Z,15.91
2018-07-12T03:03:33.006Z,15.92
2018-07-12T03:04:32.934Z,15.92
2018-07-12T03:05:32.862Z,15.94
2018-07-12T03:06:32.789Z,15.88
2018-07-12T03:07:32.717Z,15.88
2018-07-12T03:08:32.646Z,15.96
2018-07-12T03:09:32.574Z,15.92
2018-07-12T03:10:32.500Z,15.85
2018-07-12T03:11:32.428Z,15.89
2018-07-12T03:12:32.357Z,15.94
2018-07-12T03:13:32.284Z,15.91
2018-07-12T03:14:32.213Z,15.86
2018-07-12T03:15:32.139Z,15.91
2018-07-12T03:16:32.067Z,15.86
2018-07-12T03:17:31.996Z,16.01
2018-07-12T03:18:31.923Z,16.01
2018-07-12T03:19:31.851Z,16.01
2018-07-12T03:20:31.779Z,15.97
2018-07-12T03:21:31.707Z,16.00
2018-07-12T03:22:31.635Z,15.83
2018-07-12T03:23:31.563Z,15.89
2018-07-12T03:24:31.490Z,15.89
2018-07-12T03:25:31.419Z,16.00
2018-07-12T03:26:31.347Z,15.94
2018-07-12T03:27:31.274Z,16.00
2018-07-12T03:28:31.202Z,15.92
2018-07-12T03:29:31.130Z,15.92
2018-07-12T03:30:31.060Z,15.96
2018-07-12T03:31:30.986Z,15.99
2018-07-12T03:32:30.914Z,15.99
2018-07-12T03:33:30.842Z,16.07
2018-07-12T03:34:30.767Z,16.01
2018-07-12T03:35:30.700Z,16.12
2018-07-12T03:36:30.625Z,16.03
2018-07-12T03:37:30.553Z,16.06
2018-07-12T03:38:30.481Z,15.94
2018-07-12T03:39:30.409Z,15.91
2018-07-12T03:40:30.396Z,15.92
2018-07-12T03:41:30.266Z,16.06
2018-07-12T03:42:30.192Z,15.97
2018-07-12T03:43:30.120Z,15.96
2018-07-12T03:44:30.048Z,16.00
2018-07-12T03:45:29.975Z,16.03
2018-07-12T03:46:29.903Z,16.04
2018-07-12T03:47:29.832Z,15.96
2018-07-12T03:48:29.760Z,16.03
2018-07-12T03:49:29.687Z,16.01
2018-07-12T03:50:29.613Z,16.04
2018-07-12T03:51:29.544Z,16.06
2018-07-12T03:52:29.470Z,16.03
2018-07-12T03:53:29.397Z,15.99
2018-07-12T03:54:29.325Z,16.08
2018-07-12T03:55:29.254Z,16.10
2018-07-12T03:56:29.181Z,16.08
2018-07-12T03:57:29.110Z,16.01
2018-07-12T03:58:29.037Z,15.99
2018-07-12T03:59:28.965Z,16.01
2018-07-12T04:00:28.893Z,16.06
2018-07-12T04:01:28.821Z,15.97
2018-07-12T04:02:28.748Z,16.03
2018-07-12T04:03:28.690Z,16.10
2018-07-12T04:04:28.605Z,16.01
2018-07-12T04:05:28.533Z,16.10
2018-07-12T04:06:28.460Z,16.14
2018-07-12T04:07:28.389Z,16.16
2018-07-12T04:08:28.316Z,16.10
2018-07-12T04:09:28.244Z,16.08
2018-07-12T04:10:28.172Z,16.15
2018-07-12T04:11:28.100Z,16.12
2018-07-12T04:12:28.031Z,16.14
2018-07-12T04:13:27.956Z,16.18
2018-07-12T04:14:27.884Z,16.16
2018-07-12T04:15:27.812Z,16.08
2018-07-12T04:16:27.740Z,16.03
2018-07-12T04:17:27.668Z,16.03
2018-07-12T04:18:27.595Z,16.01
2018-07-12T04:19:27.527Z,15.99
2018-07-12T04:20:27.452Z,15.99
2018-07-12T04:21:27.380Z,15.97
2018-07-12T04:22:27.311Z,16.00
2018-07-12T04:23:27.235Z,15.91
2018-07-12T04:24:27.165Z,16.03
2018-07-12T04:25:27.091Z,16.00
2018-07-12T04:26:27.019Z,15.97
2018-07-12T04:27:26.946Z,15.94
2018-07-12T04:28:26.873Z,16.00
2018-07-12T04:29:26.806Z,16.01
2018-07-12T04:30:26.731Z,16.00
2018-07-12T04:31:26.660Z,16.08
2018-07-12T04:32:26.588Z,16.10
2018-07-12T04:33:26.514Z,16.07
2018-07-12T04:34:26.441Z,16.18
2018-07-12T04:35:26.370Z,16.15
2018-07-12T04:36:26.298Z,16.10
2018-07-12T04:37:26.226Z,16.18
2018-07-12T04:38:26.156Z,16.12
2018-07-12T04:39:26.082Z,16.18
2018-07-12T04:40:26.011Z,16.26
2018-07-12T04:41:25.940Z,16.18
2018-07-12T04:42:25.865Z,16.26
2018-07-12T04:43:25.793Z,16.26
2018-07-12T04:44:25.721Z,16.23
2018-07-12T04:45:25.651Z,16.18
2018-07-12T04:46:25.577Z,16.23
2018-07-12T04:47:25.505Z,16.23
2018-07-12T04:48:25.435Z,16.23
2018-07-12T04:49:25.361Z,16.27
2018-07-12T04:50:25.289Z,16.25
2018-07-12T04:51:25.217Z,16.34
2018-07-12T04:52:25.146Z,16.27
2018-07-12T04:53:25.074Z,16.27
2018-07-12T04:54:25.002Z,16.30
2018-07-12T04:55:24.929Z,16.30
2018-07-12T04:56:24.860Z,16.34
2018-07-12T04:57:24.787Z,16.38
2018-07-12T04:58:24.759Z,16.30
2018-07-12T04:59:24.641Z,16.27
2018-07-12T05:00:24.570Z,16.33
2018-07-12T05:01:24.498Z,16.35
2018-07-12T05:02:24.426Z,16.40
2018-07-12T05:03:24.354Z,16.42
2018-07-12T05:04:24.281Z,16.48
2018-07-12T05:05:24.210Z,16.48
2018-07-12T05:06:24.137Z,16.42
2018-07-12T05:07:24.067Z,16.45
2018-07-12T05:08:23.994Z,16.63
2018-07-12T05:09:23.923Z,16.63
2018-07-12T05:10:23.851Z,16.60
2018-07-12T05:11:23.779Z,16.60
2018-07-12T05:12:23.858Z,16.48
2018-07-12T05:13:23.636Z,16.59
2018-07-12T05:14:23.563Z,16.53
2018-07-12T05:15:23.492Z,16.57
2018-07-12T05:16:23.422Z,16.57
2018-07-12T05:17:23.350Z,16.48
2018-07-12T05:18:23.277Z,16.48
2018-07-12T05:19:23.206Z,16.47
2018-07-12T05:20:23.133Z,16.56
2018-07-12T05:21:23.062Z,16.48
2018-07-12T05:22:22.989Z,16.60
2018-07-12T05:23:22.921Z,16.50
2018-07-12T05:24:22.848Z,16.63
2018-07-12T05:25:22.774Z,16.60
2018-07-12T05:26:22.703Z,16.67
2018-07-12T05:27:22.631Z,16.67
2018-07-12T05:28:22.558Z,16.65
2018-07-12T05:29:22.489Z,16.60
2018-07-12T05:30:22.415Z,16.57
2018-07-12T05:31:22.346Z,16.55
2018-07-12T05:32:22.272Z,16.59
2018-07-12T05:33:22.202Z,16.67
2018-07-12T05:34:22.129Z,16.63
2018-07-12T05:35:22.057Z,16.67
2018-07-12T05:36:21.985Z,16.67
2018-07-12T05:37:21.914Z,16.73
2018-07-12T05:38:21.841Z,16.70
2018-07-12T05:39:21.808Z,16.75
2018-07-12T05:40:21.699Z,16.81
2018-07-12T05:41:21.628Z,16.89
2018-07-12T05:42:21.556Z,16.90
2018-07-12T05:43:21.484Z,16.92
2018-07-12T05:44:21.412Z,16.96
2018-07-12T05:45:21.341Z,17.02
2018-07-12T05:46:21.269Z,17.02
2018-07-12T05:47:21.199Z,17.13
2018-07-12T05:48:21.130Z,16.98
2018-07-12T05:49:21.055Z,16.99
2018-07-12T05:50:20.982Z,16.99
2018-07-12T05:51:20.911Z,16.98
2018-07-12T05:52:20.840Z,17.11
2018-07-12T05:53:20.768Z,17.13
2018-07-12T05:54:20.697Z,17.15
2018-07-12T05:55:20.625Z,17.21
2018-07-12T05:56:20.556Z,17.10
2018-07-12T05:57:20.485Z,17.07
2018-07-12T05:58:20.411Z,17.21
2018-07-12T05:59:20.340Z,17.20
2018-07-12T06:00:20.267Z,17.32
2018-07-12T06:01:20.197Z,17.35
2018-07-12T06:02:20.127Z,17.43
2018-07-12T06:03:20.053Z,17.29
2018-07-12T06:04:19.982Z,17.39
2018-07-12T06:05:19.913Z,17.30
2018-07-12T06:06:19.842Z,17.38
2018-07-12T06:07:19.769Z,17.36
2018-07-12T06:08:20.047Z,17.36
2018-07-12T06:09:19.627Z,17.53
2018-07-12T06:10:19.553Z,17.58
2018-07-12T06:11:19.482Z,17.73
2018-07-12T06:12:19.412Z,17.55
2018-07-12T06:13:19.419Z,17.67
2018-07-12T06:14:19.268Z,17.74
2018-07-12T06:15:19.196Z,17.76
2018-07-12T06:16:19.127Z,17.82
2018-07-12T06:17:19.055Z,17.85
2018-07-12T06:18:18.984Z,17.87
2018-07-12T06:19:18.913Z,17.79
2018-07-12T06:20:18.842Z,17.88
2018-07-12T06:21:18.771Z,17.96
2018-07-12T06:22:18.700Z,18.07
2018-07-12T06:23:18.628Z,18.22
2018-07-12T06:24:18.556Z,18.21
2018-07-12T06:25:18.489Z,18.29
2018-07-12T06:26:18.414Z,18.19
2018-07-12T06:27:18.344Z,18.24
2018-07-12T06:28:18.273Z,18.22
2018-07-12T06:29:18.202Z,18.24
2018-07-12T06:30:18.134Z,18.19
2018-07-12T06:31:18.060Z,18.02
2018-07-12T06:32:17.989Z,18.00
2018-07-12T06:33:17.918Z,18.04
2018-07-12T06:34:17.847Z,17.98
2018-07-12T06:35:17.775Z,18.03
2018-07-12T06:36:17.705Z,17.95
2018-07-12T06:37:17.731Z,17.96
2018-07-12T06:38:17.563Z,17.95
2018-07-12T06:39:17.492Z,17.95
2018-07-12T06:40:17.421Z,18.06
2018-07-12T06:41:17.352Z,18.21
2018-07-12T06:42:17.278Z,18.18
2018-07-12T06:43:17.208Z,18.37
2018-07-12T06:44:17.137Z,18.40
2018-07-12T06:45:17.068Z,18.44
2018-07-12T06:46:16.994Z,18.62
2018-07-12T06:47:16.925Z,18.73
2018-07-12T06:48:16.854Z,18.67
2018-07-12T06:49:16.785Z,18.79
2018-07-12T06:50:16.717Z,18.89
2018-07-12T06:51:16.642Z,18.95
2018-07-12T06:52:16.576Z,18.94
2018-07-12T06:53:16.502Z,18.92
2018-07-12T06:54:16.435Z,18.94
2018-07-12T06:55:16.359Z,18.92
2018-07-12T06:56:16.289Z,18.83
2018-07-12T06:57:16.219Z,18.82
2018-07-12T06:58:16.147Z,18.79
2018-07-12T06:59:16.077Z,18.65
2018-07-12T07:00:16.006Z,18.61
2018-07-12T07:01:15.937Z,18.57
2018-07-12T07:02:15.865Z,18.58
2018-07-12T07:03:15.796Z,18.68
2018-07-12T07:04:15.725Z,18.62
2018-07-12T07:05:15.655Z,18.61
2018-07-12T07:06:15.603Z,18.49
2018-07-12T07:07:15.515Z,18.43
2018-07-12T07:08:15.443Z,18.42
2018-07-12T07:09:15.377Z,18.43
2018-07-12T07:10:15.306Z,18.52
2018-07-12T07:11:15.233Z,18.43
2018-07-12T07:12:15.161Z,18.57
2018-07-12T07:13:15.092Z,18.71
2018-07-12T07:14:15.020Z,18.69
2018-07-12T07:15:14.952Z,18.62
2018-07-12T07:16:14.880Z,18.69
2018-07-12T07:17:14.810Z,18.65
2018-07-12T07:18:14.739Z,18.64
2018-07-12T07:19:14.673Z,18.50
2018-07-12T07:20:14.660Z,18.53
2018-07-12T07:21:14.528Z,18.55
2018-07-12T07:22:14.457Z,18.57
2018-07-12T07:23:14.387Z,18.67
2018-07-12T07:24:14.317Z,18.77
2018-07-12T07:25:14.247Z,18.92
2018-07-12T07:26:14.237Z,18.99
2018-07-12T07:27:14.110Z,19.14
2018-07-12T07:28:14.035Z,19.11
2018-07-12T07:29:13.970Z,19.02
2018-07-12T07:30:13.895Z,19.24
2018-07-12T07:31:13.825Z,19.21
2018-07-12T07:32:13.756Z,19.13
2018-07-12T07:33:13.686Z,19.21
2018-07-12T07:34:13.614Z,19.13
2018-07-12T07:35:13.543Z,19.01
2018-07-12T07:36:13.474Z,19.01
2018-07-12T07:37:13.404Z,19.09
2018-07-12T07:38:13.332Z,19.15
2018-07-12T07:39:13.264Z,19.21
2018-07-12T07:40:13.193Z,19.43
2018-07-12T07:41:13.124Z,19.28
2018-07-12T07:42:13.052Z,19.17
2018-07-12T07:43:13.172Z,19.23
2018-07-12T07:44:12.912Z,19.53
2018-07-12T07:45:12.844Z,19.64
2018-07-12T07:46:12.771Z,19.73
2018-07-12T07:47:12.700Z,19.93
2018-07-12T07:48:12.632Z,19.90
2018-07-12T07:49:12.568Z,19.45
2018-07-12T07:50:12.493Z,19.39
2018-07-12T07:51:12.423Z,19.27
2018-07-12T07:52:12.352Z,19.13
2018-07-12T07:53:12.282Z,19.06
2018-07-12T07:54:12.210Z,19.21
2018-07-12T07:55:12.145Z,19.15
2018-07-12T07:56:12.072Z,19.13
2018-07-12T07:57:12.079Z,19.01
2018-07-12T07:58:11.929Z,19.13
2018-07-12T07:59:11.860Z,19.14
2018-07-12T08:00:11.792Z,19.24
2018-07-12T08:01:11.721Z,19.27
2018-07-12T08:02:11.649Z,19.48
2018-07-12T08:03:11.579Z,19.54
2018-07-12T08:04:11.510Z,19.72
2018-07-12T08:05:11.440Z,19.72
2018-07-12T08:06:11.369Z,19.94
2018-07-12T08:07:11.299Z,19.88
2018-07-12T08:08:11.229Z,20.03
2018-07-12T08:09:11.160Z,20.19
2018-07-12T08:10:11.094Z,20.26
2018-07-12T08:11:11.020Z,20.42
2018-07-12T08:12:10.950Z,20.28
2018-07-12T08:13:10.881Z,20.43
2018-07-12T08:14:10.810Z,20.40
2018-07-12T08:15:10.743Z,20.43
2018-07-12T08:16:10.697Z,20.23
2018-07-12T08:17:10.603Z,20.12
2018-07-12T08:18:10.533Z,19.78
2018-07-12T08:19:10.462Z,19.73
2018-07-12T08:20:10.393Z,19.65
2018-07-12T08:21:10.324Z,19.68
2018-07-12T08:22:10.254Z,19.46
2018-07-12T08:23:10.184Z,19.38
2018-07-12T08:24:10.113Z,19.38
2018-07-12T08:25:10.046Z,19.39
2018-07-12T08:26:09.976Z,19.40
2018-07-12T08:27:09.912Z,19.45
2018-07-12T08:28:09.838Z,19.48
2018-07-12T08:29:09.765Z,19.35
2018-07-12T08:30:09.700Z,19.27
2018-07-12T08:31:09.642Z,19.21
2018-07-12T08:32:09.564Z,19.24
2018-07-12T08:33:09.486Z,19.35
2018-07-12T08:34:09.415Z,19.45
2018-07-12T08:35:09.346Z,19.54
2018-07-12T08:36:09.280Z,19.65
2018-07-12T08:37:09.207Z,19.63
2018-07-12T08:38:09.136Z,19.65
2018-07-12T08:39:09.066Z,19.63
2018-07-12T08:40:08.997Z,19.54
2018-07-12T08:41:08.929Z,19.45
2018-07-12T08:42:08.856Z,19.68
2018-07-12T08:43:08.786Z,19.64
2018-07-12T08:44:08.718Z,19.72
2018-07-12T08:45:08.695Z,19.90
2018-07-12T08:46:08.599Z,19.80
2018-07-12T08:47:08.507Z,19.79
2018-07-12T08:48:08.456Z,19.75
2018-07-12T08:49:08.367Z,19.91
2018-07-12T08:50:08.297Z,19.90
2018-07-12T08:51:08.227Z,19.91
2018-07-12T08:52:08.163Z,19.87
2018-07-12T08:53:08.096Z,19.73
2018-07-12T08:54:08.021Z,19.78
2018-07-12T08:55:07.950Z,19.83
2018-07-12T08:56:07.880Z,19.87
2018-07-12T08:57:07.811Z,19.88
2018-07-12T08:58:07.740Z,20.12
2018-07-12T08:59:07.671Z,20.31
2018-07-12T09:00:07.601Z,20.43
2018-07-12T09:01:07.532Z,20.38
2018-07-12T09:02:07.462Z,20.24
2018-07-12T09:03:07.542Z,20.24
2018-07-12T09:04:07.324Z,20.16
2018-07-12T09:05:07.254Z,20.09
2018-07-12T09:06:07.184Z,19.94
2018-07-12T09:07:07.114Z,19.94
2018-07-12T09:08:07.047Z,19.90
2018-07-12T09:09:06.977Z,19.88
2018-07-12T09:10:06.906Z,19.91
2018-07-12T09:11:06.837Z,20.03
2018-07-12T09:12:06.768Z,20.20
2018-07-12T09:13:06.698Z,20.35
2018-07-12T09:14:06.630Z,20.34
2018-07-12T09:15:06.561Z,20.51
2018-07-12T09:16:06.490Z,20.47
2018-07-12T09:17:06.421Z,20.64
2018-07-12T09:18:06.350Z,20.90
2018-07-12T09:19:06.281Z,20.96
2018-07-12T09:20:06.213Z,21.08
2018-07-12T09:21:06.143Z,20.96
2018-07-12T09:22:06.073Z,20.86
2018-07-12T09:23:06.004Z,20.87
2018-07-12T09:24:05.934Z,20.75
2018-07-12T09:25:05.865Z,20.59
2018-07-12T09:26:05.795Z,20.57
2018-07-12T09:27:05.725Z,20.38
2018-07-12T09:28:05.659Z,20.33
2018-07-12T09:29:05.597Z,20.38
2018-07-12T09:30:05.519Z,20.34
2018-07-12T09:31:05.453Z,20.33
2018-07-12T09:32:05.380Z,20.46
2018-07-12T09:33:05.311Z,20.38
2018-07-12T09:34:05.244Z,20.40
2018-07-12T09:35:05.173Z,20.53
2018-07-12T09:36:05.105Z,20.57
2018-07-12T09:37:05.117Z,20.69
2018-07-12T09:38:04.965Z,20.64
2018-07-12T09:39:04.895Z,20.68
2018-07-12T09:40:04.827Z,20.68
2018-07-12T09:41:04.757Z,20.91
2018-07-12T09:42:04.688Z,21.11
2018-07-12T09:43:04.696Z,20.98
2018-07-12T09:44:04.549Z,21.08
2018-07-12T09:45:04.483Z,21.21
2018-07-12T09:46:04.411Z,21.41
2018-07-12T09:47:04.342Z,21.56
2018-07-12T09:48:04.274Z,21.64
2018-07-12T09:49:04.231Z,21.75
2018-07-12T09:50:04.136Z,21.76
2018-07-12T09:51:04.067Z,21.89
2018-07-12T09:52:03.998Z,21.91
2018-07-12T09:53:03.931Z,21.86
2018-07-12T09:54:03.861Z,21.82
2018-07-12T09:55:03.792Z,21.85
2018-07-12T09:56:03.765Z,22.00
2018-07-12T09:57:03.657Z,21.84
2018-07-12T09:58:03.590Z,21.86
2018-07-12T09:59:03.519Z,21.91
2018-07-12T10:00:03.451Z,21.76
2018-07-12T10:01:03.383Z,21.89
2018-07-12T10:02:03.313Z,21.94
2018-07-12T10:03:03.247Z,22.02
2018-07-12T10:04:03.177Z,22.10
2018-07-12T10:05:03.111Z,22.08
2018-07-12T10:06:03.040Z,22.07
2018-07-12T10:07:02.976Z,22.02
2018-07-12T10:08:02.907Z,21.86
2018-07-12T10:09:02.838Z,21.64
2018-07-12T10:10:02.768Z,21.66
2018-07-12T10:11:02.703Z,21.75
2018-07-12T10:12:02.633Z,21.91
2018-07-12T10:13:02.570Z,21.72
2018-07-12T10:14:02.505Z,21.66
2018-07-12T10:15:02.428Z,21.82
2018-07-12T10:16:02.360Z,22.01
2018-07-12T10:17:02.294Z,22.17
2018-07-12T10:18:02.223Z,22.34
2018-07-12T10:19:02.157Z,22.37
2018-07-12T10:20:02.201Z,22.46
2018-07-12T10:21:02.022Z,22.34
2018-07-12T10:22:01.953Z,22.28
2018-07-12T10:23:01.884Z,22.07
2018-07-12T10:24:01.816Z,22.08
2018-07-12T10:25:01.749Z,22.07
2018-07-12T10:26:01.680Z,21.97
2018-07-12T10:27:01.618Z,21.95
2018-07-12T10:28:01.549Z,21.81
2018-07-12T10:29:01.478Z,21.70
2018-07-12T10:30:01.409Z,21.76
2018-07-12T10:31:01.341Z,21.76
2018-07-12T10:32:01.274Z,21.85
2018-07-12T10:33:01.205Z,21.89
2018-07-12T10:34:01.136Z,21.85
2018-07-12T10:35:01.069Z,21.89
2018-07-12T10:36:01.000Z,21.91
2018-07-12T10:37:00.935Z,21.69
2018-07-12T10:38:00.865Z,21.75
2018-07-12T10:39:00.796Z,21.85
2018-07-12T10:40:00.731Z,22.05
2018-07-12T10:41:00.663Z,22.34
2018-07-12T10:42:00.593Z,22.65
2018-07-12T10:43:00.534Z,22.89
2018-07-12T10:44:00.460Z,22.90
2018-07-12T10:45:00.389Z,22.94
2018-07-12T10:46:00.321Z,22.78
2018-07-12T10:47:00.253Z,22.69
2018-07-12T10:48:00.187Z,22.68
2018-07-12T10:49:00.119Z,22.63
2018-07-12T10:50:00.062Z,22.52
2018-07-12T10:50:59.987Z,22.54
2018-07-12T10:51:59.917Z,22.50
2018-07-12T10:52:59.848Z,22.52
2018-07-12T10:53:59.780Z,22.54
2018-07-12T10:54:59.713Z,22.65
2018-07-12T10:55:59.646Z,22.44
2018-07-12T10:56:59.578Z,22.59
2018-07-12T10:57:59.510Z,22.74
2018-07-12T10:58:59.494Z,22.77
2018-07-12T10:59:59.378Z,22.75
2018-07-12T11:00:59.309Z,22.75
2018-07-12T11:01:59.240Z,22.63
2018-07-12T11:02:59.175Z,22.50
2018-07-12T11:03:59.105Z,22.35
2018-07-12T11:04:59.041Z,22.31
2018-07-12T11:05:58.970Z,22.24
2018-07-12T11:06:58.902Z,22.15
2018-07-12T11:07:58.836Z,22.30
2018-07-12T11:08:58.768Z,22.49
2018-07-12T11:09:58.700Z,22.84
2018-07-12T11:10:58.633Z,23.08
2018-07-12T11:11:58.566Z,23.49
2018-07-12T11:12:58.497Z,23.55
2018-07-12T11:13:58.429Z,23.07
2018-07-12T11:14:58.362Z,23.04
2018-07-12T11:15:58.296Z,22.63
2018-07-12T11:16:58.228Z,22.60
2018-07-12T11:17:58.160Z,22.62
2018-07-12T11:18:58.096Z,22.67
2018-07-12T11:19:58.032Z,22.71
2018-07-12T11:20:57.960Z,22.75
2018-07-12T11:21:57.892Z,22.69
2018-07-12T11:22:57.826Z,22.65
2018-07-12T11:23:57.762Z,22.65
2018-07-12T11:24:57.693Z,22.65
2018-07-12T11:25:57.626Z,22.68
2018-07-12T11:26:57.558Z,22.59
2018-07-12T11:27:57.492Z,22.68
2018-07-12T11:28:57.424Z,22.67
2018-07-12T11:29:57.356Z,22.79
2018-07-12T11:30:57.290Z,22.94
2018-07-12T11:31:57.224Z,23.09
2018-07-12T11:32:57.158Z,23.15
2018-07-12T11:33:57.089Z,23.04
2018-07-12T11:34:57.020Z,23.04
2018-07-12T11:35:56.955Z,22.89
2018-07-12T11:36:56.891Z,22.81
2018-07-12T11:37:56.821Z,22.87
2018-07-12T11:38:56.753Z,22.63
2018-07-12T11:39:56.686Z,22.52
2018-07-12T11:40:56.618Z,22.49
2018-07-12T11:41:56.551Z,22.39
2018-07-12T11:42:56.484Z,22.42
2018-07-12T11:43:56.417Z,22.50
2018-07-12T11:44:56.356Z,22.56
2018-07-12T11:45:56.288Z,22.74
2018-07-12T11:46:56.216Z,23.65
2018-07-12T11:47:56.149Z,23.72
2018-07-12T11:48:56.081Z,23.40
2018-07-12T11:49:56.014Z,23.20
2018-07-12T11:50:56.015Z,23.11
2018-07-12T11:51:55.880Z,23.07
2018-07-12T11:52:55.889Z,24.05
2018-07-12T11:53:55.747Z,24.90
2018-07-12T11:54:55.682Z,25.40
2018-07-12T11:55:55.616Z,25.84
2018-07-12T11:56:55.551Z,26.24
2018-07-12T11:57:55.487Z,26.57
2018-07-12T11:58:55.421Z,26.69
2018-07-12T11:59:55.361Z,25.87
2018-07-12T12:00:55.302Z,25.45
2018-07-12T12:01:55.470Z,25.09
2018-07-12T12:02:55.167Z,25.00
2018-07-12T12:03:55.104Z,25.01
2018-07-12T12:04:55.042Z,24.90
2018-07-12T12:05:54.978Z,24.93
2018-07-12T12:06:54.921Z,24.95
2018-07-12T12:07:54.854Z,25.20
2018-07-12T12:08:54.791Z,25.40
2018-07-12T12:09:54.728Z,26.11
2018-07-12T12:10:54.662Z,26.20
2018-07-12T12:11:54.602Z,26.58
2018-07-12T12:12:54.587Z,26.35
2018-07-12T12:13:54.475Z,25.99
2018-07-12T12:14:54.414Z,25.67
2018-07-12T12:15:54.352Z,25.31
2018-07-12T12:16:54.292Z,24.91
2018-07-12T12:17:54.228Z,24.80
2018-07-12T12:18:54.166Z,25.19
2018-07-12T12:19:54.105Z,25.05
2018-07-12T12:20:54.042Z,24.79
2018-07-12T12:21:53.978Z,25.99
2018-07-12T12:22:53.916Z,27.05
2018-07-12T12:23:53.858Z,27.70
2018-07-12T12:24:53.792Z,28.31
2018-07-12T12:25:53.731Z,28.98
2018-07-12T12:26:53.669Z,28.88
2018-07-12T12:27:53.619Z,29.03
2018-07-12T12:28:53.548Z,27.50
2018-07-12T12:29:53.487Z,26.92
2018-07-12T12:30:53.427Z,27.50
2018-07-12T12:31:53.371Z,26.46
2018-07-12T12:32:53.309Z,25.57
2018-07-12T12:33:53.248Z,24.29
2018-07-12T12:34:53.185Z,23.86
2018-07-12T12:35:53.129Z,23.79
2018-07-12T12:36:53.065Z,23.80
2018-07-12T12:37:53.003Z,23.86
2018-07-12T12:38:52.942Z,23.97
2018-07-12T12:39:52.880Z,23.97
2018-07-12T12:40:52.818Z,24.01
2018-07-12T12:41:52.807Z,23.90
2018-07-12T12:42:52.694Z,23.78
2018-07-12T12:43:52.630Z,23.55
2018-07-12T12:44:52.565Z,23.60
2018-07-12T12:45:52.504Z,23.64
2018-07-12T12:46:52.438Z,23.60
2018-07-12T12:47:52.374Z,23.67
2018-07-12T12:48:52.312Z,24.07
2018-07-12T12:49:52.246Z,25.45
2018-07-12T12:50:52.241Z,26.89
2018-07-12T12:51:52.118Z,27.83